Time;durP1;ratioP1;P1;durP2;ratioP2;P2;SDS_P1;SDS_P2;PMS_P1;PMS_P2;Temp;Humidity;BMP_temperature;BMP_pressure;BME280_temperature;BME280_humidity;BME280_pressure;Samples;Min_cycle;Max_cycle;Signal;HPM_P1;HPM_P2
2022/01/18 00:00:28;;;;;;;;;;;5.70;99.90;;;;;;5079403;28;19919;-55
2022/01/18 00:02:54;;;;;;;;;;;5.70;99.90;;;;;;5078838;28;19973;-52
2022/01/18 00:05:19;;;;;;;;;;;5.70;99.90;;;;;;5078152;28;19908;-56
2022/01/18 00:07:46;;;;;;;;;;;5.70;99.90;;;;;;5077231;28;20181;-54
2022/01/18 00:10:12;;;;;;;;;;;5.70;99.90;;;;;;5078010;28;19916;-56
2022/01/18 00:15:30;;;;;;;;;;;5.70;99.90;;;;;;5096750;28;19973;-55
2022/01/18 00:20:41;;;;;;;;;;;5.80;99.90;;;;;;5096010;28;19919;-56
2022/01/18 00:23:08;;;;;;;;;;;5.80;99.90;;;;;;5076808;28;19924;-57
2022/01/18 00:25:36;;;;;;;;;;;5.80;99.90;;;;;;5078415;28;19919;-56
2022/01/18 00:28:03;;;;;;;;;;;5.80;99.90;;;;;;5077823;28;19908;-57
2022/01/18 00:35:33;;;;;;;;;;;5.80;99.90;;;;;;5097066;28;19919;-54
2022/01/18 00:37:59;;;;;;;;;;;5.80;99.90;;;;;;5078905;28;20339;-53
2022/01/18 00:40:25;;;;;;;;;;;5.80;99.90;;;;;;5097133;28;19947;-54
2022/01/18 00:42:51;;;;;;;;;;;5.80;99.90;;;;;;5098204;28;19935;-55
2022/01/18 00:45:16;;;;;;;;;;;5.80;99.90;;;;;;5080446;28;20313;-54
2022/01/18 00:47:42;;;;;;;;;;;5.80;99.90;;;;;;5080128;28;19909;-55
2022/01/18 00:50:08;;;;;;;;;;;5.80;99.90;;;;;;5097233;28;19916;-54
2022/01/18 00:52:39;;;;;;;;;;;5.80;99.90;;;;;;5096207;28;19920;-52
2022/01/18 00:55:05;;;;;;;;;;;5.90;99.90;;;;;;5078928;28;20393;-53
2022/01/18 00:57:30;;;;;;;;;;;5.90;99.90;;;;;;5096994;28;19947;-54
2022/01/18 00:59:56;;;;;;;;;;;5.90;99.90;;;;;;5079609;28;19995;-58
2022/01/18 01:02:21;;;;;;;;;;;5.90;99.90;;;;;;5096811;28;19909;-57
2022/01/18 01:04:58;;;;;;;;;;;5.90;99.90;;;;;;5079560;28;19947;-58
2022/01/18 01:07:25;;;;;;;;;;;5.90;99.90;;;;;;5080132;28;19912;-55
2022/01/18 01:09:50;;;;;;;;;;;5.90;99.90;;;;;;5080185;28;19919;-56
2022/01/18 01:12:18;;;;;;;;;;;5.90;99.90;;;;;;5096404;28;19916;-58
2022/01/18 01:14:45;;;;;;;;;;;6.00;99.90;;;;;;5079697;28;19909;-57
2022/01/18 01:17:24;;;;;;;;;;;6.00;99.90;;;;;;5096018;28;20211;-57
2022/01/18 01:37:15;;;;;;;;;;;6.00;99.90;;;;;;5097369;28;19919;-51
2022/01/18 01:42:06;;;;;;;;;;;6.00;99.90;;;;;;5096781;28;19919;-57
2022/01/18 01:44:43;;;;;;;;;;;6.00;99.90;;;;;;5079539;28;19984;-56
2022/01/18 01:47:10;;;;;;;;;;;6.00;99.90;;;;;;5097329;28;20272;-55
2022/01/18 01:49:58;;;;;;;;;;;6.00;99.90;;;;;;5079833;28;19999;-56
2022/01/18 01:52:23;;;;;;;;;;;6.00;99.90;;;;;;5078430;28;19998;-56
2022/01/18 01:54:49;;;;;;;;;;;6.00;99.90;;;;;;5079861;28;19955;-57
2022/01/18 01:57:14;;;;;;;;;;;6.10;99.90;;;;;;5079486;28;19963;-55
2022/01/18 01:59:40;;;;;;;;;;;6.10;99.90;;;;;;5097124;28;19915;-57
2022/01/18 02:02:06;;;;;;;;;;;6.10;99.90;;;;;;5096892;28;20319;-57
2022/01/18 02:04:31;;;;;;;;;;;6.10;99.90;;;;;;5079128;28;19916;-55
2022/01/18 02:06:57;;;;;;;;;;;6.10;99.90;;;;;;5097269;28;20012;-55
2022/01/18 02:09:22;;;;;;;;;;;6.10;99.90;;;;;;5078817;28;20253;-54
2022/01/18 02:11:50;;;;;;;;;;;6.10;99.90;;;;;;5079054;28;19924;-56
2022/01/18 02:14:19;;;;;;;;;;;6.10;99.90;;;;;;5078978;28;19969;-52
2022/01/18 02:22:13;;;;;;;;;;;6.10;99.90;;;;;;5099746;28;19922;-56
2022/01/18 02:24:39;;;;;;;;;;;6.10;99.90;;;;;;5082444;28;19912;-56
2022/01/18 02:27:05;;;;;;;;;;;6.10;99.90;;;;;;5082435;28;19981;-55
2022/01/18 02:29:30;;;;;;;;;;;6.10;99.90;;;;;;5082209;28;19938;-56
2022/01/18 02:31:56;;;;;;;;;;;6.10;99.90;;;;;;5081684;28;19912;-57
2022/01/18 02:34:22;;;;;;;;;;;6.10;99.90;;;;;;5082563;28;19920;-55
2022/01/18 02:36:48;;;;;;;;;;;6.10;99.90;;;;;;5081829;28;19919;-56
2022/01/18 02:39:18;;;;;;;;;;;6.10;99.90;;;;;;5082897;28;20003;-56
2022/01/18 02:41:50;;;;;;;;;;;6.20;99.90;;;;;;5081804;28;20281;-57
2022/01/18 02:44:15;;;;;;;;;;;6.20;99.90;;;;;;5100259;28;19912;-56
2022/01/18 02:46:42;;;;;;;;;;;6.20;99.90;;;;;;5081902;28;19998;-56
2022/01/18 02:49:07;;;;;;;;;;;6.20;99.90;;;;;;5081323;28;19908;-54
2022/01/18 02:51:33;;;;;;;;;;;6.20;99.90;;;;;;5099319;28;19984;-56
2022/01/18 02:54:03;;;;;;;;;;;6.20;99.90;;;;;;5081723;28;19923;-57
2022/01/18 02:56:33;;;;;;;;;;;6.20;99.90;;;;;;5081576;28;20288;-56
2022/01/18 02:59:10;;;;;;;;;;;6.20;99.90;;;;;;5081524;28;19954;-56
2022/01/18 03:04:20;;;;;;;;;;;6.30;99.90;;;;;;5099031;28;19998;-55
2022/01/18 03:06:45;;;;;;;;;;;6.30;99.90;;;;;;5098661;28;19965;-53
2022/01/18 03:09:11;;;;;;;;;;;6.30;99.90;;;;;;5081735;28;19923;-52
2022/01/18 03:11:36;;;;;;;;;;;6.30;99.90;;;;;;5081086;28;19912;-51
2022/01/18 03:14:03;;;;;;;;;;;6.30;99.90;;;;;;5099510;28;19908;-54
2022/01/18 03:16:29;;;;;;;;;;;6.30;99.90;;;;;;5081128;28;19912;-53
2022/01/18 03:18:54;;;;;;;;;;;6.30;99.90;;;;;;5080258;28;19923;-57
2022/01/18 03:21:20;;;;;;;;;;;6.30;99.90;;;;;;5081057;28;19912;-56
2022/01/18 03:23:51;;;;;;;;;;;6.30;99.90;;;;;;5100005;28;19916;-52
2022/01/18 03:26:18;;;;;;;;;;;6.30;99.90;;;;;;5081548;28;20215;-55
2022/01/18 03:31:48;;;;;;;;;;;6.40;99.90;;;;;;5099253;28;20110;-54
2022/01/18 03:34:13;;;;;;;;;;;6.40;99.90;;;;;;5081302;28;19919;-54
2022/01/18 03:36:39;;;;;;;;;;;6.40;99.90;;;;;;5081204;28;19912;-54
2022/01/18 03:39:05;;;;;;;;;;;6.40;99.90;;;;;;5081511;28;19923;-54
2022/01/18 03:41:30;;;;;;;;;;;6.40;99.90;;;;;;5081461;28;19970;-55
2022/01/18 03:43:56;;;;;;;;;;;6.40;99.90;;;;;;5081056;28;19908;-55
2022/01/18 03:46:21;;;;;;;;;;;6.40;99.90;;;;;;5080592;28;19912;-57
2022/01/18 03:48:50;;;;;;;;;;;6.40;99.90;;;;;;5080618;28;20192;-53
2022/01/18 03:51:16;;;;;;;;;;;6.40;99.90;;;;;;5079318;28;19920;-56
2022/01/18 03:53:41;;;;;;;;;;;6.40;99.90;;;;;;5097186;28;19912;-57
2022/01/18 03:56:09;;;;;;;;;;;6.40;99.90;;;;;;5078926;28;19916;-54
2022/01/18 03:58:35;;;;;;;;;;;6.40;99.90;;;;;;5078909;28;20006;-56
2022/01/18 04:01:00;;;;;;;;;;;6.40;99.90;;;;;;5096731;28;20003;-56
2022/01/18 04:03:26;;;;;;;;;;;6.40;99.90;;;;;;5079866;28;19913;-54
2022/01/18 04:05:52;;;;;;;;;;;6.40;99.90;;;;;;5079842;28;19939;-54
2022/01/18 04:08:19;;;;;;;;;;;6.50;99.90;;;;;;5080809;28;19916;-57
2022/01/18 04:10:45;;;;;;;;;;;6.40;99.90;;;;;;5080218;28;20201;-55
2022/01/18 04:13:10;;;;;;;;;;;6.50;99.90;;;;;;5078720;28;19908;-52
2022/01/18 04:15:35;;;;;;;;;;;6.50;99.90;;;;;;5097487;28;19923;-55
2022/01/18 04:18:11;;;;;;;;;;;6.50;99.90;;;;;;5097167;28;20191;-55
2022/01/18 04:28:51;;;;;;;;;;;6.50;99.90;;;;;;5097594;28;20003;-51
2022/01/18 04:31:16;;;;;;;;;;;6.50;99.90;;;;;;5079068;28;20010;-52
2022/01/18 04:33:42;;;;;;;;;;;6.50;99.90;;;;;;5079587;28;19964;-55
2022/01/18 04:36:08;;;;;;;;;;;6.50;99.90;;;;;;5079295;28;19908;-54
2022/01/18 04:38:34;;;;;;;;;;;6.50;99.90;;;;;;5079306;28;19912;-51
2022/01/18 04:41:05;;;;;;;;;;;6.50;99.90;;;;;;5096389;28;20359;-50
2022/01/18 04:44:15;;;;;;;;;;;6.50;99.90;;;;;;5078674;28;19916;-58
2022/01/18 04:49:24;;;;;;;;;;;6.50;99.90;;;;;;5096959;28;19919;-52
2022/01/18 04:51:49;;;;;;;;;;;6.60;99.90;;;;;;5078212;28;19920;-57
2022/01/18 04:54:16;;;;;;;;;;;6.60;99.90;;;;;;5078905;28;19923;-53
2022/01/18 04:59:10;;;;;;;;;;;6.60;99.90;;;;;;5096949;28;19908;-56
2022/01/18 05:01:37;;;;;;;;;;;6.60;99.90;;;;;;5079048;28;20500;-54
2022/01/18 05:04:02;;;;;;;;;;;6.60;99.90;;;;;;5079711;28;19908;-57
2022/01/18 05:06:28;;;;;;;;;;;6.60;99.90;;;;;;5079367;28;19912;-57
2022/01/18 05:08:54;;;;;;;;;;;6.60;99.90;;;;;;5079325;28;19956;-57
2022/01/18 05:11:22;;;;;;;;;;;6.60;99.90;;;;;;5078734;28;19977;-55
2022/01/18 05:14:07;;;;;;;;;;;6.60;99.90;;;;;;5079012;28;19919;-57
2022/01/18 05:19:12;;;;;;;;;;;6.60;99.90;;;;;;5096027;28;20013;-55
2022/01/18 05:24:06;;;;;;;;;;;6.60;99.90;;;;;;5096540;28;19938;-56
2022/01/18 05:26:32;;;;;;;;;;;6.60;99.90;;;;;;5077833;28;19912;-56
2022/01/18 05:28:57;;;;;;;;;;;6.50;99.90;;;;;;5078695;28;20256;-56
2022/01/18 05:31:26;;;;;;;;;;;6.50;99.90;;;;;;5077310;28;20004;-57
2022/01/18 05:33:54;;;;;;;;;;;6.50;99.90;;;;;;5078449;28;19908;-57
2022/01/18 05:36:20;;;;;;;;;;;6.50;99.90;;;;;;5077244;28;19919;-56
2022/01/18 05:38:45;;;;;;;;;;;6.40;99.90;;;;;;5095076;28;19989;-55
2022/01/18 05:41:11;;;;;;;;;;;6.40;99.90;;;;;;5076568;28;19915;-56
2022/01/18 05:43:37;;;;;;;;;;;6.40;99.90;;;;;;5075647;28;19908;-57
2022/01/18 05:46:02;;;;;;;;;;;6.40;99.90;;;;;;5077831;28;19919;-56
2022/01/18 05:48:28;;;;;;;;;;;6.40;99.90;;;;;;5075804;28;19908;-54
2022/01/18 05:50:59;;;;;;;;;;;6.40;99.90;;;;;;5076775;28;19916;-56
2022/01/18 05:53:28;;;;;;;;;;;6.30;99.90;;;;;;5098186;28;19988;-55
2022/01/18 05:55:54;;;;;;;;;;;6.30;99.90;;;;;;5097844;28;20269;-57
2022/01/18 05:58:19;;;;;;;;;;;6.40;99.90;;;;;;5079516;28;19919;-53
2022/01/18 06:00:52;;;;;;;;;;;6.40;99.90;;;;;;5079766;28;20184;-57
2022/01/18 06:03:26;;;;;;;;;;;6.30;99.90;;;;;;5079331;28;19919;-57
2022/01/18 06:08:35;;;;;;;;;;;6.40;99.90;;;;;;5098020;28;20323;-55
2022/01/18 06:11:01;;;;;;;;;;;6.40;99.90;;;;;;5080669;28;19962;-51
2022/01/18 06:13:28;;;;;;;;;;;6.30;99.90;;;;;;5079968;28;19912;-53
2022/01/18 06:15:54;;;;;;;;;;;6.30;99.90;;;;;;5080415;28;19916;-57
2022/01/18 06:18:22;;;;;;;;;;;6.40;99.90;;;;;;5080372;28;19923;-58
2022/01/18 06:20:48;;;;;;;;;;;6.40;99.90;;;;;;5098657;28;19908;-58
2022/01/18 06:23:14;;;;;;;;;;;6.40;99.90;;;;;;5080794;28;19934;-56
2022/01/18 06:25:39;;;;;;;;;;;6.50;99.90;;;;;;5081391;28;19994;-58
2022/01/18 06:28:05;;;;;;;;;;;6.50;99.90;;;;;;5080599;28;19923;-57
2022/01/18 06:30:31;;;;;;;;;;;6.40;99.90;;;;;;5079803;28;20376;-57
2022/01/18 06:32:56;;;;;;;;;;;6.50;99.90;;;;;;5079513;28;20373;-57
2022/01/18 06:35:21;;;;;;;;;;;6.50;99.90;;;;;;5076995;28;19920;-57
2022/01/18 06:37:47;;;;;;;;;;;6.50;99.90;;;;;;5112224;28;19999;-57
2022/01/18 06:40:13;;;;;;;;;;;6.50;99.90;;;;;;5077993;28;20276;-56
2022/01/18 06:42:39;;;;;;;;;;;6.50;99.90;;;;;;5074891;28;19923;-58
2022/01/18 06:45:05;;;;;;;;;;;6.50;99.90;;;;;;5095099;28;19908;-57
2022/01/18 06:47:30;;;;;;;;;;;6.50;99.90;;;;;;5075897;28;19938;-57
2022/01/18 06:49:55;;;;;;;;;;;6.60;99.90;;;;;;5075712;28;19912;-56
2022/01/18 06:52:21;;;;;;;;;;;6.50;99.90;;;;;;5076657;28;19990;-58
2022/01/18 06:54:46;;;;;;;;;;;6.60;99.90;;;;;;5076278;28;20280;-57
2022/01/18 06:57:12;;;;;;;;;;;6.60;99.90;;;;;;5074090;28;19912;-55
2022/01/18 06:59:38;;;;;;;;;;;6.60;99.90;;;;;;5073153;28;19944;-54
2022/01/18 07:02:04;;;;;;;;;;;6.60;99.90;;;;;;5076005;28;19908;-55
2022/01/18 07:04:29;;;;;;;;;;;6.60;99.90;;;;;;5073513;28;20029;-57
2022/01/18 07:06:55;;;;;;;;;;;6.60;99.90;;;;;;5075685;28;19947;-57
2022/01/18 07:09:23;;;;;;;;;;;6.60;99.90;;;;;;5076616;28;20407;-57
2022/01/18 07:11:51;;;;;;;;;;;6.60;99.90;;;;;;5095063;28;20308;-57
2022/01/18 07:14:17;;;;;;;;;;;6.60;99.90;;;;;;5077625;28;20330;-58
2022/01/18 07:16:44;;;;;;;;;;;6.60;99.90;;;;;;5095779;28;19908;-57
2022/01/18 07:19:09;;;;;;;;;;;6.60;99.90;;;;;;5076329;28;19973;-58
2022/01/18 07:21:34;;;;;;;;;;;6.60;99.90;;;;;;5094179;28;19912;-54
2022/01/18 07:24:05;;;;;;;;;;;6.60;99.90;;;;;;5076559;28;19977;-58
2022/01/18 07:26:31;;;;;;;;;;;6.60;99.90;;;;;;5077057;28;19962;-56
2022/01/18 07:28:57;;;;;;;;;;;6.60;99.90;;;;;;5094668;28;19977;-58
2022/01/18 07:31:22;;;;;;;;;;;6.60;99.90;;;;;;5112119;28;20359;-56
2022/01/18 07:33:47;;;;;;;;;;;6.60;99.90;;;;;;5077763;28;19916;-58
2022/01/18 07:36:13;;;;;;;;;;;6.60;99.90;;;;;;5095924;28;19908;-58
2022/01/18 07:38:39;;;;;;;;;;;6.60;99.90;;;;;;5076681;28;19916;-54
2022/01/18 07:41:04;;;;;;;;;;;6.60;99.90;;;;;;5077018;28;19908;-57
2022/01/18 07:43:29;;;;;;;;;;;6.60;99.90;;;;;;5077264;28;19923;-54
2022/01/18 07:45:55;;;;;;;;;;;6.60;99.90;;;;;;5076862;28;19908;-56
2022/01/18 07:48:23;;;;;;;;;;;6.70;99.90;;;;;;5077252;28;19920;-57
2022/01/18 07:50:49;;;;;;;;;;;6.70;99.90;;;;;;5076706;28;19926;-57
2022/01/18 07:53:14;;;;;;;;;;;6.70;99.90;;;;;;5077970;28;20285;-56
2022/01/18 07:55:40;;;;;;;;;;;6.70;99.90;;;;;;5077537;28;19916;-58
2022/01/18 07:58:05;;;;;;;;;;;6.70;99.90;;;;;;5077972;28;19912;-55
2022/01/18 08:00:31;;;;;;;;;;;6.70;99.90;;;;;;5095632;28;19919;-58
2022/01/18 08:02:56;;;;;;;;;;;6.70;99.90;;;;;;5079275;28;19923;-56
2022/01/18 08:05:22;;;;;;;;;;;6.70;99.90;;;;;;5076286;28;19916;-57
2022/01/18 08:07:48;;;;;;;;;;;6.70;99.90;;;;;;5076476;28;19912;-53
2022/01/18 08:10:17;;;;;;;;;;;6.70;99.90;;;;;;5076639;28;19912;-55
2022/01/18 08:12:42;;;;;;;;;;;6.70;99.90;;;;;;5076060;28;19916;-54
2022/01/18 08:15:14;;;;;;;;;;;6.70;99.90;;;;;;5110724;28;19934;-56
2022/01/18 08:17:41;;;;;;;;;;;6.70;99.90;;;;;;5076146;28;19908;-58
2022/01/18 08:20:07;;;;;;;;;;;6.70;99.90;;;;;;5076744;28;20304;-58
2022/01/18 08:22:32;;;;;;;;;;;6.70;99.90;;;;;;5095254;28;19958;-55
2022/01/18 08:24:58;;;;;;;;;;;6.80;99.90;;;;;;5095221;28;20277;-58
2022/01/18 08:27:23;;;;;;;;;;;6.80;99.90;;;;;;5078502;28;19908;-56
2022/01/18 08:29:49;;;;;;;;;;;6.80;99.90;;;;;;5095695;28;19908;-57
2022/01/18 08:32:15;;;;;;;;;;;6.80;99.90;;;;;;5094465;28;20045;-55
2022/01/18 08:34:40;;;;;;;;;;;6.80;99.90;;;;;;5076203;28;20237;-63
2022/01/18 08:37:06;;;;;;;;;;;6.80;99.90;;;;;;5094403;28;19916;-57
2022/01/18 08:39:31;;;;;;;;;;;6.80;99.90;;;;;;5076700;28;19924;-58
2022/01/18 08:41:57;;;;;;;;;;;6.80;99.90;;;;;;5075889;28;19927;-56
2022/01/18 08:44:22;;;;;;;;;;;6.90;99.90;;;;;;5074353;28;19943;-56
2022/01/18 08:46:48;;;;;;;;;;;6.90;99.90;;;;;;5077240;28;19909;-57
2022/01/18 08:49:13;;;;;;;;;;;6.90;99.90;;;;;;5077728;28;19919;-58
2022/01/18 08:51:39;;;;;;;;;;;6.90;99.90;;;;;;5094195;28;19920;-58
2022/01/18 08:54:04;;;;;;;;;;;6.90;99.90;;;;;;5091525;28;19927;-56
2022/01/18 08:56:31;;;;;;;;;;;6.90;99.90;;;;;;5075581;28;19908;-58
2022/01/18 08:58:58;;;;;;;;;;;6.90;99.90;;;;;;5076784;28;20006;-56
2022/01/18 09:01:25;;;;;;;;;;;6.90;99.90;;;;;;5076685;28;20018;-55
2022/01/18 09:03:52;;;;;;;;;;;6.90;99.90;;;;;;5075928;28;19965;-58
2022/01/18 09:06:18;;;;;;;;;;;6.90;99.90;;;;;;5093992;28;19965;-57
2022/01/18 09:08:54;;;;;;;;;;;7.00;99.90;;;;;;5074983;28;19912;-55
2022/01/18 09:11:24;;;;;;;;;;;7.00;99.90;;;;;;5092420;28;20427;-58
2022/01/18 09:13:50;;;;;;;;;;;7.00;99.90;;;;;;5091909;28;19969;-54
2022/01/18 09:16:17;;;;;;;;;;;7.00;99.90;;;;;;5075941;28;19988;-54
2022/01/18 09:18:43;;;;;;;;;;;7.00;99.90;;;;;;5076238;28;19912;-56
2022/01/18 09:21:10;;;;;;;;;;;7.00;99.90;;;;;;5091586;28;19923;-57
2022/01/18 09:23:39;;;;;;;;;;;7.00;99.90;;;;;;5072186;28;19930;-54
2022/01/18 09:26:06;;;;;;;;;;;7.00;99.90;;;;;;5090791;28;19942;-56
2022/01/18 09:28:33;;;;;;;;;;;7.00;99.90;;;;;;5077881;28;19912;-57
2022/01/18 09:31:00;;;;;;;;;;;7.10;99.90;;;;;;5077719;28;19916;-58
2022/01/18 09:33:27;;;;;;;;;;;7.10;99.90;;;;;;5078891;28;19908;-53
2022/01/18 09:35:52;;;;;;;;;;;7.10;99.90;;;;;;5075419;28;20107;-57
2022/01/18 09:38:18;;;;;;;;;;;7.10;99.90;;;;;;5072123;28;19916;-55
2022/01/18 09:40:45;;;;;;;;;;;7.10;99.90;;;;;;5093279;28;20254;-55
2022/01/18 09:43:13;;;;;;;;;;;7.10;99.90;;;;;;5093704;28;20294;-55
2022/01/18 09:45:41;;;;;;;;;;;7.10;99.90;;;;;;5093139;28;19920;-56
2022/01/18 09:48:07;;;;;;;;;;;7.10;99.90;;;;;;5091632;28;19913;-54
2022/01/18 09:50:34;;;;;;;;;;;7.10;99.90;;;;;;5072898;28;19912;-55
2022/01/18 09:53:01;;;;;;;;;;;7.20;99.90;;;;;;5072934;28;20022;-54
2022/01/18 09:55:28;;;;;;;;;;;7.20;99.90;;;;;;5072884;28;19923;-56
2022/01/18 09:57:54;;;;;;;20.60;4.57;;;7.10;99.90;;;;;;5071029;28;20176;-53
2022/01/18 10:00:21;;;;;;;15.13;3.63;;;7.20;99.90;;;;;;5087387;28;20180;-53
2022/01/18 10:02:48;;;;;;;14.70;3.83;;;7.20;99.90;;;;;;5071787;28;20673;-55
2022/01/18 10:05:34;;;;;;;20.80;4.03;;;7.20;99.90;;;;;;5069505;28;20266;-55
2022/01/18 10:08:06;;;;;;;11.97;3.83;;;7.20;99.90;;;;;;5070189;28;20180;-56
2022/01/18 10:10:37;;;;;;;19.20;5.57;;;7.20;99.90;;;;;;5091820;28;20621;-58
2022/01/18 10:13:04;;;;;;;18.73;3.77;;;7.20;99.90;;;;;;5074101;28;20214;-56
2022/01/18 10:15:30;;;;;;;20.50;3.80;;;7.20;99.90;;;;;;5091985;28;20309;-54
2022/01/18 10:18:04;;;;;;;13.80;3.43;;;7.20;99.90;;;;;;5075360;28;20262;-57
2022/01/18 10:20:30;;;;;;;21.13;5.33;;;7.30;99.90;;;;;;5074051;28;20392;-56
2022/01/18 10:22:56;;;;;;;19.23;4.80;;;7.30;99.90;;;;;;5074709;28;20382;-54
2022/01/18 10:25:27;;;;;;;22.63;5.17;;;7.30;99.90;;;;;;5073979;28;20792;-54
2022/01/18 10:27:54;;;;;;;23.57;4.90;;;7.40;99.90;;;;;;5091659;28;20394;-57
2022/01/18 10:30:35;;;;;;;19.00;3.87;;;7.40;99.90;;;;;;5092283;28;20183;-58
2022/01/18 10:33:18;;;;;;;22.20;4.50;;;7.40;99.90;;;;;;5072605;28;20284;-55
2022/01/18 10:36:12;;;;;;;14.17;3.60;;;7.40;99.90;;;;;;5089875;28;20161;-57
2022/01/18 10:39:00;;;;;;;16.67;3.60;;;7.40;99.90;;;;;;5072468;28;20301;-58
2022/01/18 10:41:34;;;;;;;10.80;3.17;;;7.50;99.90;;;;;;5070236;28;20325;-56
2022/01/18 10:44:05;;;;;;;20.53;4.37;;;7.50;99.90;;;;;;5071247;28;20216;-56
2022/01/18 10:46:50;;;;;;;14.53;3.97;;;7.50;99.90;;;;;;5069856;28;20161;-57
2022/01/18 10:49:27;;;;;;;13.40;3.10;;;7.50;99.90;;;;;;5070840;28;20168;-59
2022/01/18 10:51:58;;;;;;;23.30;3.30;;;7.60;99.90;;;;;;5069788;28;20232;-60
2022/01/18 10:54:37;;;;;;;15.23;3.20;;;7.70;99.90;;;;;;5070499;28;20164;-60
2022/01/18 10:57:06;;;;;;;20.30;4.13;;;7.80;99.90;;;;;;5087269;28;20172;-58
2022/01/18 10:59:32;;;;;;;18.37;3.97;;;7.90;99.90;;;;;;5085525;28;20229;-54
2022/01/18 11:02:18;;;;;;;15.03;2.93;;;7.80;99.90;;;;;;5068962;28;20229;-57
2022/01/18 11:04:52;;;;;;;12.17;3.27;;;7.80;99.90;;;;;;5069923;28;20170;-56
2022/01/18 11:07:21;;;;;;;13.73;3.00;;;7.70;99.90;;;;;;5056699;28;20611;-58
2022/01/18 11:09:50;;;;;;;14.77;2.93;;;7.70;99.90;;;;;;5073419;28;20223;-54
2022/01/18 11:12:27;;;;;;;12.53;2.83;;;7.60;99.90;;;;;;5073305;28;20208;-56
2022/01/18 11:15:04;;;;;;;11.50;2.70;;;7.60;99.90;;;;;;5076730;28;20175;-55
2022/01/18 11:17:39;;;;;;;15.10;2.67;;;7.60;99.90;;;;;;5092566;28;20191;-57
2022/01/18 11:20:06;;;;;;;9.67;2.17;;;7.50;99.90;;;;;;5070365;28;20519;-58
2022/01/18 11:22:33;;;;;;;9.87;2.47;;;7.50;99.90;;;;;;5070456;28;20356;-55
2022/01/18 11:25:01;;;;;;;11.77;2.63;;;7.50;99.90;;;;;;5070012;28;20172;-57
2022/01/18 11:27:29;;;;;;;10.47;1.97;;;7.60;99.90;;;;;;5086741;28;20465;-57
2022/01/18 11:29:55;;;;;;;12.43;2.30;;;7.60;99.90;;;;;;5072484;28;20635;-56
2022/01/18 11:32:26;;;;;;;7.07;1.60;;;7.60;99.90;;;;;;5071273;28;20200;-56
2022/01/18 11:34:54;;;;;;;11.70;2.20;;;7.60;99.90;;;;;;5071028;28;20168;-58
2022/01/18 11:37:35;;;;;;;10.03;2.07;;;7.60;99.90;;;;;;5069927;28;20206;-57
2022/01/18 11:40:07;;;;;;;11.40;2.67;;;7.60;99.90;;;;;;5069950;28;20575;-57
2022/01/18 11:42:39;;;;;;;16.93;2.90;;;7.60;99.90;;;;;;5086239;28;20184;-57
2022/01/18 11:45:24;;;;;;;11.77;2.93;;;7.60;99.90;;;;;;5069374;28;20357;-57
2022/01/18 11:48:11;;;;;;;11.87;2.80;;;7.60;99.90;;;;;;5054213;28;20223;-56
2022/01/18 11:50:46;;;;;;;13.07;1.83;;;7.60;99.90;;;;;;5049411;28;20211;-56
2022/01/18 11:53:26;;;;;;;9.33;2.27;;;7.60;99.90;;;;;;5049289;28;20657;-54
2022/01/18 11:55:57;;;;;;;10.23;2.17;;;7.60;99.90;;;;;;5048998;28;20564;-58
2022/01/18 11:58:25;;;;;;;13.63;2.33;;;7.60;99.90;;;;;;5050557;28;20161;-57
2022/01/18 12:01:00;;;;;;;12.37;2.10;;;7.60;99.90;;;;;;5052223;28;20340;-56
2022/01/18 12:03:32;;;;;;;14.87;2.50;;;7.60;99.90;;;;;;5049495;28;20278;-54
2022/01/18 12:06:02;;;;;;;10.13;2.10;;;7.70;99.90;;;;;;5049420;28;20179;-57
2022/01/18 12:08:29;;;;;;;9.33;2.23;;;7.60;99.90;;;;;;5068102;28;20493;-55
2022/01/18 12:10:55;;;;;;;11.23;2.63;;;7.60;99.90;;;;;;5084138;28;20201;-54
2022/01/18 12:13:33;;;;;;;6.77;1.40;;;7.70;99.90;;;;;;5069610;28;20169;-57
2022/01/18 12:16:02;;;;;;;7.70;1.73;;;7.70;99.90;;;;;;5069948;28;20157;-56
2022/01/18 12:18:31;;;;;;;10.90;2.50;;;7.70;99.90;;;;;;5052417;28;20215;-55
2022/01/18 12:21:03;;;;;;;11.00;1.93;;;7.70;99.90;;;;;;5070319;28;20274;-52
2022/01/18 12:23:32;;;;;;;9.40;2.27;;;7.70;99.90;;;;;;5072017;28;20172;-56
2022/01/18 12:26:14;;;;;;;9.90;2.47;;;7.70;99.90;;;;;;5070439;28;20169;-54
2022/01/18 12:28:57;;;;;;;11.00;2.23;;;7.60;99.90;;;;;;5052000;28;20176;-56
2022/01/18 12:34:37;;;;;;;6.43;1.53;;;7.60;99.90;;;;;;5068669;28;20638;-57
2022/01/18 12:39:58;;;;;;;8.40;1.60;;;7.60;99.90;;;;;;5073192;28;20173;-56
2022/01/18 12:45:24;;;;;;;6.30;1.73;;;7.60;99.90;;;;;;5072277;28;20169;-55
2022/01/18 12:48:02;;;;;;;9.10;1.90;;;7.60;99.90;;;;;;5055096;28;20168;-54
2022/01/18 12:50:42;;;;;;;7.27;2.30;;;7.60;99.90;;;;;;5054890;28;20481;-57
2022/01/18 12:53:17;;;;;;;6.87;1.57;;;7.60;99.90;;;;;;5055349;28;20654;-53
2022/01/18 12:56:00;;;;;;;7.47;1.70;;;7.60;99.90;;;;;;5056130;28;20509;-56
2022/01/18 12:58:40;;;;;;;8.23;1.60;;;7.60;99.90;;;;;;5056108;28;20648;-58
2022/01/18 13:01:15;;;;;;;6.90;1.80;;;7.60;99.90;;;;;;5053373;28;20283;-52
2022/01/18 13:03:47;;;;;;;8.47;2.30;;;7.60;99.90;;;;;;5053984;28;20176;-54
2022/01/18 13:06:17;;;;;;;5.53;1.87;;;7.70;99.90;;;;;;5053766;28;20176;-56
2022/01/18 13:08:57;;;;;;;5.73;1.53;;;7.80;99.90;;;;;;5052779;28;20204;-55
2022/01/18 13:11:22;;;;;;;14.13;1.80;;;7.80;99.90;;;;;;5053257;28;20231;-56
2022/01/18 13:14:11;;;;;;;7.83;2.37;;;7.90;99.90;;;;;;5088377;28;20211;-56
2022/01/18 13:27:28;;;;;;;5.33;1.80;;;7.60;99.90;;;;;;5068854;28;20265;-56
2022/01/18 13:30:03;;;;;;;4.53;1.60;;;7.60;99.90;;;;;;5053399;28;20267;-54
2022/01/18 13:32:33;;;;;;;4.70;1.43;;;7.60;99.90;;;;;;5069217;28;20276;-54
2022/01/18 13:35:02;;;;;;;4.00;1.50;;;7.50;99.90;;;;;;5054424;28;20168;-58
2022/01/18 13:37:31;;;;;;;4.63;1.70;;;7.50;99.90;;;;;;5054240;28;20195;-57
2022/01/18 13:40:00;;;;;;;2.70;1.40;;;7.50;99.90;;;;;;5067802;28;20180;-56
2022/01/18 13:42:32;;;;;;;3.07;1.50;;;7.40;99.90;;;;;;5052459;28;20173;-58
2022/01/18 13:45:19;;;;;;;4.67;1.80;;;7.40;99.90;;;;;;5058663;28;20227;-54
2022/01/18 13:47:55;;;;;;;5.43;1.90;;;7.40;99.90;;;;;;5090618;28;20167;-53
2022/01/18 13:50:43;;;;;;;3.73;1.60;;;7.40;99.90;;;;;;5072234;28;20170;-57
2022/01/18 13:53:16;;;;;;;4.87;2.00;;;7.40;99.90;;;;;;5070609;28;20199;-54
2022/01/18 13:55:51;;;;;;;4.03;1.80;;;7.40;99.90;;;;;;5071093;28;20164;-57
2022/01/18 13:58:33;;;;;;;6.80;1.93;;;7.40;99.90;;;;;;5073463;28;20517;-57
2022/01/18 14:01:20;;;;;;;10.17;2.33;;;7.40;99.90;;;;;;5068098;28;20175;-57
2022/01/18 14:03:47;;;;;;;3.50;1.70;;;7.30;99.90;;;;;;5064913;28;20172;-57
2022/01/18 14:06:15;;;;;;;3.50;1.80;;;7.30;99.90;;;;;;5065319;28;20183;-57
2022/01/18 14:08:49;;;;;;;6.70;2.00;;;7.30;99.90;;;;;;5063443;28;20454;-56
2022/01/18 14:11:18;;;;;;;4.03;1.90;;;7.30;99.90;;;;;;5064824;28;20386;-54
2022/01/18 14:13:43;;;;;;;4.03;1.53;;;7.30;99.90;;;;;;5050190;28;20199;-53
2022/01/18 14:16:25;;;;;;;9.30;1.97;;;7.30;99.90;;;;;;5068847;28;20165;-57
2022/01/18 14:19:04;;;;;;;4.10;1.90;;;7.30;99.90;;;;;;5069957;28;20160;-55
2022/01/18 14:21:45;;;;;;;5.23;1.60;;;7.30;99.90;;;;;;5069577;28;20823;-55
2022/01/18 14:24:23;;;;;;;6.13;2.30;;;7.30;99.90;;;;;;5071827;28;20635;-54
2022/01/18 14:26:52;;;;;;;4.60;2.20;;;7.30;99.90;;;;;;5071551;28;20558;-58
2022/01/18 14:29:19;;;;;;;5.60;1.90;;;7.30;99.90;;;;;;5089209;28;20164;-57
2022/01/18 14:32:06;;;;;;;2.20;1.63;;;7.30;99.90;;;;;;5071293;28;20204;-58
2022/01/18 14:34:35;;;;;;;3.23;1.70;;;7.20;99.90;;;;;;5069172;28;20197;-56
2022/01/18 14:37:03;;;;;;;4.22;2.58;;;7.30;99.90;;;;;;5066663;28;20428;-56
2022/01/18 14:39:29;;;;;;;5.18;2.50;;;7.30;99.90;;;;;;5065241;28;20471;-54
2022/01/18 14:42:05;;;;;;;4.35;2.15;;;7.30;99.90;;;;;;5064533;28;20646;-58
2022/01/18 14:47:26;;;;;;;4.55;2.10;;;7.30;99.90;;;;;;5086948;28;20412;-58
2022/01/18 14:49:53;;;;;;;5.27;2.40;;;7.30;99.90;;;;;;5071329;28;20378;-56
2022/01/18 14:52:19;;;;;;;7.17;2.70;;;7.30;99.90;;;;;;5071161;28;20785;-55
2022/01/18 14:54:44;;;;;;;6.25;2.80;;;7.30;99.90;;;;;;5069630;28;20374;-57
2022/01/18 14:57:10;;;;;;;3.43;2.17;;;7.30;99.90;;;;;;5069045;28;20670;-55
2022/01/18 14:59:36;;;;;;;4.90;2.30;;;7.30;99.90;;;;;;5068853;28;20385;-53
2022/01/18 15:02:01;;;;;;;5.30;2.90;;;7.30;99.90;;;;;;5070752;28;20596;-55
2022/01/18 15:04:27;;;;;;;6.25;2.50;;;7.30;99.90;;;;;;5087342;28;20378;-54
2022/01/18 15:06:53;;;;;;;5.13;2.60;;;7.30;99.90;;;;;;5070434;28;20802;-57
2022/01/18 15:09:19;;;;;;;7.10;2.80;;;7.30;99.90;;;;;;5069443;28;20404;-54
2022/01/18 15:11:45;;;;;;;5.73;2.80;;;7.30;99.90;;;;;;5070096;28;20428;-53
2022/01/18 15:14:11;;;;;;;5.80;3.07;;;7.30;99.90;;;;;;5069283;28;20421;-53
2022/01/18 15:16:36;;;;;;;4.15;2.80;;;7.30;99.90;;;;;;5071819;28;20855;-55
2022/01/18 15:19:02;;;;;;;5.28;2.63;;;7.30;99.90;;;;;;5069590;28;20941;-52
2022/01/18 15:21:28;;;;;;;5.43;2.88;;;7.20;99.90;;;;;;5072844;28;20474;-51
2022/01/18 15:23:53;;;;;;;3.70;2.60;;;7.10;99.90;;;;;;5072628;28;20472;-53
2022/01/18 15:26:19;;;;;;;4.87;2.80;;;7.10;99.90;;;;;;5073418;28;20389;-57